createdAt,value
2023-10-15T13:22:24.927Z,62.07
2023-10-15T13:37:25.800Z,60.21
2023-10-15T13:52:25.634Z,58.57
2023-10-15T14:07:25.467Z,59.56
2023-10-15T14:22:26.744Z,59.87
2023-10-15T14:37:25.112Z,60.61
2023-10-15T14:56:06.927Z,62.39
2023-10-15T15:11:15.336Z,62.26
2023-10-15T15:26:07.638Z,64.47
2023-10-15T15:41:07.460Z,65.75
2023-10-15T15:56:07.296Z,66.12
2023-10-15T16:11:07.178Z,68.41
2023-10-15T16:26:07.157Z,69.78
2023-10-15T16:41:06.789Z,70.50
2023-10-15T16:56:06.842Z,70.50
2023-10-15T17:11:06.484Z,71.31
2023-10-15T17:26:06.369Z,70.67
2023-10-15T17:41:06.275Z,72.48
2023-10-15T17:56:13.707Z,72.68
2023-10-15T18:11:05.810Z,73.19
2023-10-15T18:26:05.733Z,74.12
2023-10-15T18:41:05.619Z,75.21
2023-10-15T18:56:05.356Z,77.72
2023-10-15T19:11:05.265Z,79.91
2023-10-15T19:26:05.067Z,80.98
2023-10-15T19:41:04.911Z,81.63
2023-10-15T19:56:04.697Z,81.95
2023-10-15T20:11:04.573Z,82.46
2023-10-15T20:26:04.384Z,83.12
2023-10-15T20:41:04.225Z,82.81
2023-10-15T20:56:04.086Z,82.81
2023-10-15T21:11:03.914Z,83.36
2023-10-15T21:26:03.740Z,84.33
2023-10-15T21:41:03.605Z,85.91
2023-10-15T21:56:03.461Z,86.02
2023-10-15T22:11:03.301Z,86.94
2023-10-15T22:26:03.190Z,87.35
2023-10-15T22:41:02.981Z,88.43
2023-10-15T22:56:02.830Z,88.84
2023-10-15T23:11:02.724Z,89.71
2023-10-15T23:26:03.686Z,90.02
2023-10-15T23:41:02.481Z,90.64
2023-10-15T23:56:02.275Z,90.99
